Time;durP1;ratioP1;P1;durP2;ratioP2;P2;SDS_P1;SDS_P2;PMS_P1;PMS_P2;Temp;Humidity;BMP_temperature;BMP_pressure;BME280_temperature;BME280_humidity;BME280_pressure;Samples;Min_cycle;Max_cycle;Signal;HPM_P1;HPM_P2
2022/09/07 00:02:19;;;;;;;3.90;3.60;;;;;;;;;;5010217;28;20163;-61
2022/09/07 00:04:45;;;;;;;4.67;3.70;;;;;;;;;;4995188;28;20182;-59
2022/09/07 00:07:11;;;;;;;3.90;3.50;;;;;;;;;;4992434;28;20179;-60
2022/09/07 00:09:38;;;;;;;6.17;5.53;;;;;;;;;;4997740;28;20186;-60
2022/09/07 00:12:04;;;;;;;4.07;3.67;;;;;;;;;;4994645;28;20541;-60
2022/09/07 00:14:30;;;;;;;3.90;3.60;;;;;;;;;;4993916;28;20678;-61
2022/09/07 00:16:56;;;;;;;3.53;3.30;;;;;;;;;;4974174;28;20185;-61
2022/09/07 00:19:22;;;;;;;4.20;3.90;;;;;;;;;;4987352;28;20579;-61
2022/09/07 00:21:48;;;;;;;4.17;3.80;;;;;;;;;;5001745;28;20289;-61
2022/09/07 00:24:14;;;;;;;4.33;3.93;;;;;;;;;;4976172;28;20187;-59
2022/09/07 00:26:40;;;;;;;4.13;3.73;;;;;;;;;;5003658;28;20554;-60
2022/09/07 00:29:07;;;;;;;4.13;3.73;;;;;;;;;;4987081;28;20234;-60
2022/09/07 00:31:33;;;;;;;4.67;4.20;;;;;;;;;;4980410;28;20686;-61
2022/09/07 00:34:00;;;;;;;4.17;3.67;;;;;;;;;;4983079;28;20786;-60
2022/09/07 00:36:26;;;;;;;4.20;3.80;;;;;;;;;;4977143;28;20184;-60
2022/09/07 00:38:52;;;;;;;4.67;3.90;;;;;;;;;;4995881;28;20642;-60
2022/09/07 00:41:20;;;;;;;4.10;3.70;;;;;;;;;;4959709;28;20194;-59
2022/09/07 00:43:49;;;;;;;4.70;4.13;;;;;;;;;;4982179;28;20279;-59
2022/09/07 00:46:16;;;;;;;4.53;3.70;;;;;;;;;;5008898;28;20178;-59
2022/09/07 01:44:27;;;;;;;3.30;3.00;;;;;;;;;;4996203;28;20215;-58
2022/09/07 01:47:07;;;;;;;3.60;3.30;;;;;;;;;;4977126;28;20290;-58
2022/09/07 01:49:39;;;;;;;5.53;3.33;;;;;;;;;;4969528;28;20667;-58
2022/09/07 01:52:13;;;;;;;3.70;3.40;;;;;;;;;;4955406;28;20177;-57
2022/09/07 01:54:46;;;;;;;3.27;2.87;;;;;;;;;;4960914;28;20686;-56
2022/09/07 01:57:25;;;;;;;3.40;3.10;;;;;;;;;;4967464;28;20524;-56
2022/09/07 02:00:03;;;;;;;3.83;3.43;;;;;;;;;;4970787;28;20301;-57
2022/09/07 02:02:30;;;;;;;3.30;3.00;;;;;;;;;;4955738;28;20169;-56
2022/09/07 02:05:07;;;;;;;3.93;3.20;;;;;;;;;;4959517;28;20210;-58
2022/09/07 02:07:36;;;;;;;3.20;2.90;;;;;;;;;;4970000;28;20564;-58
2022/09/07 02:10:07;;;;;;;3.97;3.13;;;;;;;;;;4968800;28;20529;-58
2022/09/07 02:12:35;;;;;;;3.17;2.90;;;;;;;;;;4954869;28;20174;-58
2022/09/07 02:15:04;;;;;;;2.97;2.77;;;;;;;;;;4975022;28;20231;-58
2022/09/07 02:17:36;;;;;;;3.57;3.10;;;;;;;;;;4965465;28;20539;-58
2022/09/07 02:20:11;;;;;;;3.22;3.03;;;;;;;;;;4969490;28;20445;-56
2022/09/07 02:22:39;;;;;;;3.03;2.83;;;;;;;;;;4961908;28;20528;-57
2022/09/07 02:25:07;;;;;;;3.87;3.13;;;;;;;;;;4970882;28;20180;-57
2022/09/07 02:27:35;;;;;;;4.70;2.87;;;;;;;;;;4973222;28;20585;-58
2022/09/07 02:30:01;;;;;;;4.47;3.30;;;;;;;;;;4966827;28;20213;-57
2022/09/07 02:32:27;;;;;;;3.83;3.00;;;;;;;;;;4959158;28;20187;-58
2022/09/07 02:34:53;;;;;;;3.43;3.13;;;;;;;;;;4966421;28;20191;-57
2022/09/07 02:37:20;;;;;;;3.37;3.17;;;;;;;;;;4969596;28;20186;-58
2022/09/07 02:39:47;;;;;;;4.23;3.50;;;;;;;;;;4970528;28;20175;-57
2022/09/07 02:42:13;;;;;;;3.07;2.87;;;;;;;;;;4969232;28;20248;-58
2022/09/07 02:44:41;;;;;;;3.47;3.20;;;;;;;;;;4974553;28;20613;-57
2022/09/07 02:47:13;;;;;;;3.50;3.20;;;;;;;;;;4988603;28;20213;-58
2022/09/07 02:49:43;;;;;;;5.30;3.60;;;;;;;;;;4989914;28;20186;-57
2022/09/07 02:52:15;;;;;;;3.53;3.23;;;;;;;;;;4988231;28;20186;-58
2022/09/07 02:55:01;;;;;;;3.47;3.20;;;;;;;;;;4988098;28;20234;-57
2022/09/07 02:57:30;;;;;;;3.10;2.90;;;;;;;;;;4997086;28;20194;-58
2022/09/07 03:00:04;;;;;;;3.30;3.10;;;;;;;;;;4993771;28;20229;-57
2022/09/07 03:02:39;;;;;;;3.20;3.00;;;;;;;;;;5000218;28;20175;-59
2022/09/07 03:05:11;;;;;;;3.33;3.03;;;;;;;;;;4989349;28;20261;-59
2022/09/07 03:07:40;;;;;;;3.13;2.90;;;;;;;;;;4977616;28;20196;-58
2022/09/07 03:10:08;;;;;;;3.40;3.10;;;;;;;;;;4989638;28;20523;-57
2022/09/07 03:12:44;;;;;;;3.20;2.90;;;;;;;;;;4990274;28;20184;-57
2022/09/07 03:15:12;;;;;;;3.33;3.13;;;;;;;;;;4992917;28;20411;-57
2022/09/07 03:17:39;;;;;;;3.10;2.90;;;;;;;;;;4994769;28;20726;-59
2022/09/07 03:20:06;;;;;;;3.07;2.80;;;;;;;;;;4992474;28;20182;-58
2022/09/07 03:22:33;;;;;;;3.10;2.90;;;;;;;;;;5000516;28;20185;-58
2022/09/07 03:25:00;;;;;;;3.23;3.03;;;;;;;;;;4989367;28;20243;-59
2022/09/07 03:27:26;;;;;;;3.23;2.93;;;;;;;;;;5001448;28;20561;-58
2022/09/07 03:29:52;;;;;;;3.07;2.87;;;;;;;;;;4992971;28;20188;-58
2022/09/07 03:32:18;;;;;;;4.17;3.97;;;;;;;;;;4989207;28;20184;-57
2022/09/07 03:34:47;;;;;;;4.40;4.13;;;;;;;;;;4994842;28;20250;-58
2022/09/07 03:37:13;;;;;;;3.77;3.57;;;;;;;;;;4999834;28;20183;-57
2022/09/07 03:39:39;;;;;;;3.50;3.30;;;;;;;;;;4985853;28;20715;-57
2022/09/07 03:42:05;;;;;;;4.07;3.77;;;;;;;;;;4994663;28;20187;-58
2022/09/07 03:44:32;;;;;;;3.20;3.00;;;;;;;;;;4993357;28;20533;-59
2022/09/07 03:46:58;;;;;;;3.07;2.83;;;;;;;;;;4987039;28;20655;-57
2022/09/07 03:49:24;;;;;;;5.13;3.43;;;;;;;;;;4987263;28;20670;-58
2022/09/07 03:51:50;;;;;;;3.50;3.30;;;;;;;;;;4988562;28;20189;-58
2022/09/07 03:54:16;;;;;;;4.43;3.30;;;;;;;;;;4974837;28;20210;-58
2022/09/07 03:56:42;;;;;;;3.77;3.47;;;;;;;;;;4970483;28;20574;-59
2022/09/07 03:59:08;;;;;;;3.33;3.10;;;;;;;;;;4995206;28;20180;-59
2022/09/07 04:01:35;;;;;;;4.03;3.03;;;;;;;;;;4997658;28;20195;-59
2022/09/07 04:04:01;;;;;;;6.67;4.27;;;;;;;;;;4992265;28;20651;-58
2022/09/07 04:06:27;;;;;;;3.67;3.20;;;;;;;;;;5007270;28;20203;-59
2022/09/07 04:08:55;;;;;;;3.60;3.30;;;;;;;;;;5003001;28;20180;-61
2022/09/07 04:11:21;;;;;;;4.20;3.90;;;;;;;;;;4991830;28;20691;-59
2022/09/07 04:13:48;;;;;;;4.17;3.77;;;;;;;;;;4968411;28;20214;-58
2022/09/07 04:16:16;;;;;;;4.20;3.90;;;;;;;;;;4976491;28;20177;-60
2022/09/07 04:18:42;;;;;;;3.73;3.43;;;;;;;;;;5000186;28;20673;-59
2022/09/07 04:21:09;;;;;;;8.67;8.17;;;;;;;;;;5001371;28;20178;-60
2022/09/07 04:23:39;;;;;;;4.43;4.13;;;;;;;;;;5001948;28;20662;-58
2022/09/07 04:26:05;;;;;;;4.27;3.97;;;;;;;;;;4980239;28;20185;-59
2022/09/07 04:28:31;;;;;;;6.27;5.20;;;;;;;;;;5004786;28;20185;-59
2022/09/07 04:31:01;;;;;;;5.17;4.77;;;;;;;;;;4974047;28;20660;-59
2022/09/07 04:33:30;;;;;;;5.13;4.77;;;;;;;;;;4987078;28;20177;-59
2022/09/07 04:35:56;;;;;;;4.70;4.30;;;;;;;;;;4965492;28;20180;-59
2022/09/07 04:38:22;;;;;;;11.43;10.73;;;;;;;;;;4972072;28;20180;-59
2022/09/07 04:40:49;;;;;;;4.57;4.17;;;;;;;;;;4971265;28;20186;-59
2022/09/07 04:43:15;;;;;;;5.63;4.47;;;;;;;;;;4990115;28;20161;-60
2022/09/07 04:45:41;;;;;;;8.03;4.97;;;;;;;;;;4981315;28;20619;-59
2022/09/07 04:48:07;;;;;;;3.87;3.57;;;;;;;;;;4988481;28;20176;-58
2022/09/07 04:50:34;;;;;;;4.00;3.70;;;;;;;;;;4987928;28;20177;-59
2022/09/07 04:53:00;;;;;;;4.17;3.80;;;;;;;;;;4977705;28;20186;-59
2022/09/07 04:55:26;;;;;;;4.93;4.43;;;;;;;;;;4989944;28;20212;-59
2022/09/07 04:57:52;;;;;;;4.17;3.83;;;;;;;;;;4962364;28;20320;-58
2022/09/07 05:00:18;;;;;;;8.23;7.73;;;;;;;;;;4985749;28;20594;-58
2022/09/07 05:02:45;;;;;;;4.17;3.40;;;;;;;;;;4990324;28;20223;-58
2022/09/07 05:05:11;;;;;;;4.40;4.07;;;;;;;;;;4989655;28;20218;-59
2022/09/07 05:07:37;;;;;;;3.83;3.50;;;;;;;;;;4979491;28;20239;-59
2022/09/07 05:10:03;;;;;;;4.70;3.67;;;;;;;;;;4964545;28;20276;-58
2022/09/07 05:12:30;;;;;;;4.67;3.83;;;;;;;;;;4985146;28;20222;-58
2022/09/07 05:14:56;;;;;;;4.43;3.80;;;;;;;;;;4993821;28;20195;-57
2022/09/07 05:17:22;;;;;;;3.70;3.40;;;;;;;;;;4982812;28;20199;-57
2022/09/07 05:19:49;;;;;;;4.07;3.70;;;;;;;;;;4978672;28;20217;-58
2022/09/07 05:22:15;;;;;;;3.60;3.30;;;;;;;;;;4976007;28;20187;-58
2022/09/07 05:24:41;;;;;;;9.90;6.87;;;;;;;;;;4990052;28;20187;-58
2022/09/07 05:27:07;;;;;;;7.40;5.70;;;;;;;;;;4989329;28;20172;-57
2022/09/07 05:29:34;;;;;;;6.20;5.70;;;;;;;;;;4970185;28;20221;-58
2022/09/07 05:32:00;;;;;;;6.43;5.07;;;;;;;;;;4952961;28;20191;-57
2022/09/07 05:34:26;;;;;;;5.00;4.50;;;;;;;;;;4974059;28;20200;-57
2022/09/07 05:37:01;;;;;;;6.18;5.57;;;;;;;;;;4976548;28;20484;-57
2022/09/07 05:39:28;;;;;;;4.80;4.40;;;;;;;;;;4974064;28;20235;-58
2022/09/07 05:41:54;;;;;;;5.50;4.30;;;;;;;;;;4968684;28;20665;-58
2022/09/07 05:44:21;;;;;;;4.60;4.20;;;;;;;;;;4980398;28;20738;-57
2022/09/07 05:47:01;;;;;;;4.10;3.80;;;;;;;;;;4978598;28;20223;-57
2022/09/07 05:49:27;;;;;;;3.97;3.67;;;;;;;;;;4986617;28;20187;-58
2022/09/07 05:51:53;;;;;;;5.00;4.17;;;;;;;;;;4993961;28;20371;-57
2022/09/07 05:54:19;;;;;;;4.00;3.57;;;;;;;;;;4964465;28;20198;-57
2022/09/07 05:56:46;;;;;;;5.67;5.17;;;;;;;;;;5001903;28;20182;-57
2022/09/07 05:59:12;;;;;;;4.13;3.80;;;;;;;;;;4981253;28;20176;-57
2022/09/07 06:01:39;;;;;;;3.90;3.50;;;;;;;;;;4981509;28;20220;-57
2022/09/07 06:04:05;;;;;;;4.33;3.93;;;;;;;;;;4966210;28;20214;-57
2022/09/07 06:06:31;;;;;;;4.70;3.43;;;;;;;;;;4999015;28;20281;-57
2022/09/07 06:08:58;;;;;;;3.80;3.50;;;;;;;;;;4966736;28;20188;-59
2022/09/07 06:11:26;;;;;;;4.03;3.73;;;;;;;;;;4975001;28;20675;-57
2022/09/07 06:13:52;;;;;;;4.77;3.70;;;;;;;;;;4989086;28;20246;-58
2022/09/07 06:16:19;;;;;;;4.03;3.70;;;;;;;;;;4964323;28;20272;-58
2022/09/07 06:18:46;;;;;;;3.83;3.50;;;;;;;;;;4980918;28;20246;-58
2022/09/07 06:21:13;;;;;;;4.20;3.80;;;;;;;;;;4973709;28;20181;-57
2022/09/07 06:23:40;;;;;;;4.73;4.37;;;;;;;;;;4967498;28;20180;-58
2022/09/07 06:26:07;;;;;;;3.87;3.57;;;;;;;;;;4962405;28;20181;-58
2022/09/07 06:28:37;;;;;;;5.57;5.17;;;;;;;;;;4984336;28;20198;-59
2022/09/07 06:31:04;;;;;;;4.50;3.60;;;;;;;;;;4988171;28;20621;-58
2022/09/07 06:33:31;;;;;;;4.50;4.13;;;;;;;;;;4962606;28;20805;-59
2022/09/07 06:36:03;;;;;;;3.90;3.60;;;;;;;;;;4994998;28;20738;-60
2022/09/07 06:38:34;;;;;;;4.57;4.17;;;;;;;;;;4984902;28;20576;-60
2022/09/07 06:41:00;;;;;;;4.07;3.73;;;;;;;;;;4979729;28;20179;-60
2022/09/07 06:43:27;;;;;;;4.07;3.73;;;;;;;;;;4969234;28;21025;-59
2022/09/07 06:45:53;;;;;;;3.87;3.57;;;;;;;;;;4960166;28;20764;-60
2022/09/07 06:48:20;;;;;;;3.80;3.50;;;;;;;;;;4935855;28;20194;-60
2022/09/07 06:51:00;;;;;;;4.07;3.77;;;;;;;;;;4947744;28;20250;-59
2022/09/07 06:53:27;;;;;;;4.57;4.27;;;;;;;;;;4975009;28;21056;-61
2022/09/07 06:55:53;;;;;;;6.20;5.63;;;;;;;;;;4973736;28;20278;-61
2022/09/07 06:58:20;;;;;;;4.80;4.50;;;;;;;;;;4965203;28;20187;-61
2022/09/07 07:00:46;;;;;;;6.10;5.57;;;;;;;;;;4957772;28;20187;-60
2022/09/07 07:03:12;;;;;;;4.60;4.20;;;;;;;;;;4974827;28;20188;-61
2022/09/07 07:05:39;;;;;;;6.20;4.80;;;;;;;;;;4956971;28;20705;-60
2022/09/07 07:08:05;;;;;;;5.00;4.60;;;;;;;;;;4953456;28;20300;-61
2022/09/07 07:10:35;;;;;;;4.77;4.37;;;;;;;;;;4960166;28;20175;-61
2022/09/07 07:13:02;;;;;;;5.07;4.67;;;;;;;;;;4956774;28;20188;-60
2022/09/07 07:15:28;;;;;;;4.47;4.07;;;;;;;;;;4957132;28;20665;-61
2022/09/07 07:17:54;;;;;;;4.80;4.40;;;;;;;;;;4936699;29;20655;-60
2022/09/07 07:20:20;;;;;;;5.00;4.47;;;;;;;;;;4953244;28;20186;-61
2022/09/07 07:22:50;;;;;;;6.57;4.73;;;;;;;;;;4945284;28;20179;-61
2022/09/07 07:25:16;;;;;;;4.60;4.20;;;;;;;;;;4971991;28;20218;-60
2022/09/07 07:27:44;;;;;;;5.17;4.67;;;;;;;;;;4969800;28;20207;-60
2022/09/07 07:30:14;;;;;;;4.63;4.23;;;;;;;;;;4966073;28;20191;-60
2022/09/07 07:32:40;;;;;;;5.90;4.60;;;;;;;;;;4962462;28;20175;-60
2022/09/07 07:35:10;;;;;;;5.20;4.67;;;;;;;;;;4960153;28;20322;-64
2022/09/07 07:37:37;;;;;;;5.90;5.43;;;;;;;;;;4954586;28;20292;-61
2022/09/07 07:40:07;;;;;;;10.87;9.77;;;;;;;;;;4972926;28;20269;-61
2022/09/07 07:42:34;;;;;;;9.83;8.83;;;;;;;;;;4979241;28;20726;-61
2022/09/07 07:45:00;;;;;;;10.23;9.13;;;;;;;;;;4966898;28;20183;-61
2022/09/07 07:47:27;;;;;;;9.93;8.90;;;;;;;;;;4999418;28;20665;-60
2022/09/07 07:49:54;;;;;;;10.23;9.23;;;;;;;;;;4974747;28;20192;-60
2022/09/07 07:52:20;;;;;;;8.07;7.23;;;;;;;;;;4987043;28;20183;-61
2022/09/07 07:54:47;;;;;;;8.17;6.93;;;;;;;;;;4970676;28;20636;-60
2022/09/07 07:57:15;;;;;;;8.47;7.17;;;;;;;;;;4975925;28;20258;-60
2022/09/07 07:59:41;;;;;;;8.17;7.37;;;;;;;;;;4967053;28;20191;-60
2022/09/07 08:02:13;;;;;;;7.90;7.10;;;;;;;;;;4965373;28;21650;-60
2022/09/07 08:04:39;;;;;;;7.27;6.67;;;;;;;;;;4958342;28;20244;-60
2022/09/07 08:07:06;;;;;;;7.47;6.60;;;;;;;;;;4996412;28;20684;-60
2022/09/07 08:09:32;;;;;;;6.67;6.00;;;;;;;;;;4986378;28;20176;-60
2022/09/07 08:11:58;;;;;;;9.13;6.27;;;;;;;;;;5001171;28;20669;-60
2022/09/07 08:14:25;;;;;;;6.50;5.90;;;;;;;;;;4975010;28;20713;-60
2022/09/07 08:16:51;;;;;;;8.10;4.93;;;;;;;;;;4969027;28;20204;-60
2022/09/07 08:19:18;;;;;;;6.00;5.00;;;;;;;;;;4972266;28;20259;-59
2022/09/07 08:21:44;;;;;;;6.13;5.13;;;;;;;;;;4987031;28;20166;-59
2022/09/07 08:24:10;;;;;;;5.70;4.70;;;;;;;;;;4990426;28;20180;-59
2022/09/07 08:26:36;;;;;;;6.40;4.80;;;;;;;;;;4977930;28;20233;-59
2022/09/07 08:29:03;;;;;;;9.47;6.03;;;;;;;;;;4986920;28;20196;-59
2022/09/07 08:31:29;;;;;;;6.67;5.93;;;;;;;;;;4999630;28;20286;-59
2022/09/07 08:33:55;;;;;;;8.23;5.63;;;;;;;;;;4972738;28;20586;-59
2022/09/07 08:36:21;;;;;;;5.67;5.13;;;;;;;;;;4977128;28;20276;-59
2022/09/07 08:38:47;;;;;;;5.63;4.80;;;;;;;;;;4989703;28;20544;-60
2022/09/07 08:41:29;;;;;;;7.57;5.23;;;;;;;;;;4971603;28;20582;-60
2022/09/07 08:44:00;;;;;;;7.20;5.20;;;;;;;;;;4964462;28;20179;-60
2022/09/07 08:46:35;;;;;;;5.67;5.07;;;;;;;;;;4986723;28;20233;-60
2022/09/07 08:49:04;;;;;;;6.57;5.03;;;;;;;;;;5001380;28;20172;-60
2022/09/07 08:51:56;;;;;;;8.47;5.20;;;;;;;;;;4987624;28;20223;-60
2022/09/07 08:54:22;;;;;;;6.87;5.33;;;;;;;;;;4987267;28;20234;-60
2022/09/07 08:56:50;;;;;;;6.82;6.13;;;;;;;;;;4989327;28;20445;-59
2022/09/07 08:59:48;;;;;;;6.13;5.60;;;;;;;;;;4971787;28;20263;-60
2022/09/07 09:02:16;;;;;;;8.00;5.70;;;;;;;;;;4927875;28;20487;-60
2022/09/07 09:04:43;;;;;;;7.20;5.80;;;;;;;;;;4985750;28;20242;-60
2022/09/07 09:07:28;;;;;;;5.87;5.37;;;;;;;;;;4989472;28;20190;-59
2022/09/07 09:10:16;;;;;;;6.43;5.20;;;;;;;;;;4988372;28;20194;-59
2022/09/07 09:12:47;;;;;;;7.40;5.90;;;;;;;;;;4953228;28;20172;-59
2022/09/07 09:15:21;;;;;;;7.53;6.07;;;;;;;;;;4986151;28;20556;-59
2022/09/07 09:17:55;;;;;;;9.23;6.13;;;;;;;;;;4972246;28;20211;-55
2022/09/07 09:20:30;;;;;;;6.83;6.23;;;;;;;;;;4988169;28;20269;-57
2022/09/07 09:23:01;;;;;;;8.20;6.93;;;;;;;;;;4971853;28;20273;-56
2022/09/07 09:25:35;;;;;;;10.87;9.43;;;;;;;;;;4988573;28;20186;-56
2022/09/07 09:28:04;;;;;;;7.33;6.73;;;;;;;;;;4983852;28;20654;-56
2022/09/07 09:30:30;;;;;;;7.30;6.70;;;;;;;;;;5001058;28;20174;-57
2022/09/07 09:33:15;;;;;;;9.67;8.80;;;;;;;;;;4971180;28;20192;-56
2022/09/07 09:35:41;;;;;;;10.43;9.43;;;;;;;;;;4996260;28;20210;-57
2022/09/07 09:38:28;;;;;;;8.37;7.40;;;;;;;;;;4982270;28;20191;-56
2022/09/07 09:41:00;;;;;;;6.63;5.67;;;;;;;;;;4983943;28;20202;-56
2022/09/07 09:43:29;;;;;;;8.03;5.60;;;;;;;;;;4967838;28;20196;-57
2022/09/07 09:45:57;;;;;;;6.73;5.33;;;;;;;;;;4954739;28;20233;-56
2022/09/07 09:48:43;;;;;;;6.70;6.10;;;;;;;;;;4966334;28;20262;-57
2022/09/07 09:51:15;;;;;;;5.60;4.53;;;;;;;;;;4948966;28;20189;-57
2022/09/07 09:53:49;;;;;;;5.97;5.43;;;;;;;;;;4946706;29;20221;-57
2022/09/07 09:56:15;;;;;;;4.97;4.53;;;;;;;;;;4950474;29;20613;-57
2022/09/07 09:58:44;;;;;;;4.53;4.13;;;;;;;;;;4939233;28;20205;-57
2022/09/07 10:01:22;;;;;;;6.67;5.07;;;;;;;;;;4943525;28;20182;-58
2022/09/07 10:03:48;;;;;;;5.93;5.10;;;;;;;;;;4965117;28;20181;-57
2022/09/07 10:06:16;;;;;;;6.90;5.50;;;;;;;;;;4951480;28;20225;-57
2022/09/07 10:08:56;;;;;;;7.90;4.60;;;;;;;;;;4973742;28;20208;-57
2022/09/07 10:11:39;;;;;;;5.57;5.07;;;;;;;;;;4957448;28;20266;-58
2022/09/07 10:14:05;;;;;;;5.67;5.17;;;;;;;;;;4964609;28;20217;-57
2022/09/07 10:16:43;;;;;;;5.40;4.90;;;;;;;;;;4948049;28;20218;-57
2022/09/07 10:19:24;;;;;;;4.57;4.17;;;;;;;;;;4969539;28;20196;-57
2022/09/07 10:21:56;;;;;;;5.50;5.00;;;;;;;;;;4970049;28;20945;-57
2022/09/07 10:24:24;;;;;;;7.47;6.77;;;;;;;;;;4944003;28;20265;-57
2022/09/07 10:26:50;;;;;;;7.50;6.57;;;;;;;;;;4979696;28;20898;-57
2022/09/07 10:29:22;;;;;;;8.60;5.00;;;;;;;;;;4962470;28;20186;-58
2022/09/07 10:31:48;;;;;;;5.30;4.80;;;;;;;;;;4950581;28;20629;-57
2022/09/07 10:34:33;;;;;;;5.80;5.30;;;;;;;;;;4958180;28;20438;-56
2022/09/07 10:37:03;;;;;;;5.93;5.33;;;;;;;;;;4963833;28;20177;-57
2022/09/07 10:39:37;;;;;;;6.93;5.43;;;;;;;;;;4968532;28;20169;-57
2022/09/07 10:42:09;;;;;;;7.00;6.40;;;;;;;;;;4982337;28;20196;-58
2022/09/07 10:44:42;;;;;;;6.23;4.73;;;;;;;;;;4941622;28;20228;-58
2022/09/07 10:47:18;;;;;;;8.70;5.07;;;;;;;;;;4953753;28;20233;-56
2022/09/07 10:49:55;;;;;;;5.10;4.70;;;;;;;;;;4979670;28;20226;-57
2022/09/07 10:52:34;;;;;;;5.97;5.37;;;;;;;;;;4984147;28;20194;-57
2022/09/07 10:55:00;;;;;;;7.27;5.50;;;;;;;;;;4973303;28;20293;-56
2022/09/07 10:57:45;;;;;;;5.70;5.20;;;;;;;;;;4995433;28;20260;-57
2022/09/07 11:00:13;;;;;;;5.17;4.67;;;;;;;;;;4970471;28;20181;-58
2022/09/07 11:02:49;;;;;;;5.67;4.57;;;;;;;;;;4964161;28;20438;-57
2022/09/07 11:05:37;;;;;;;5.23;4.83;;;;;;;;;;4992151;28;20682;-57
2022/09/07 11:08:14;;;;;;;6.00;5.37;;;;;;;;;;4980523;28;20252;-57
2022/09/07 11:10:41;;;;;;;7.80;5.40;;;;;;;;;;4986499;28;20189;-57
2022/09/07 11:13:10;;;;;;;5.47;5.00;;;;;;;;;;4976439;28;20192;-57
2022/09/07 11:15:42;;;;;;;6.00;5.47;;;;;;;;;;4976309;28;20209;-57
2022/09/07 11:18:14;;;;;;;8.13;5.37;;;;;;;;;;4976437;28;20623;-57
2022/09/07 11:20:49;;;;;;;6.00;5.40;;;;;;;;;;4990513;28;20205;-57
2022/09/07 11:23:28;;;;;;;5.73;5.23;;;;;;;;;;4993590;28;20301;-57
2022/09/07 11:26:01;;;;;;;6.27;5.73;;;;;;;;;;4982005;28;20446;-57
2022/09/07 11:28:30;;;;;;;6.57;5.20;;;;;;;;;;4986536;28;20293;-57
2022/09/07 11:30:59;;;;;;;5.80;5.30;;;;;;;;;;4968655;28;20191;-56
2022/09/07 11:33:28;;;;;;;5.10;4.70;;;;;;;;;;4971984;28;20194;-56
2022/09/07 11:36:18;;;;;;;5.40;4.67;;;;;;;;;;4990318;28;20294;-57
2022/09/07 11:38:47;;;;;;;5.03;4.63;;;;;;;;;;4982512;28;20188;-57
2022/09/07 11:41:28;;;;;;;5.83;4.63;;;;;;;;;;4975938;28;20180;-57
2022/09/07 11:44:13;;;;;;;6.17;4.80;;;;;;;;;;4978265;28;20218;-57
2022/09/07 11:46:47;;;;;;;5.87;5.27;;;;;;;;;;4978053;28;20228;-56
2022/09/07 11:49:20;;;;;;;5.47;4.97;;;;;;;;;;4997571;28;20180;-57
2022/09/07 11:51:56;;;;;;;5.50;5.00;;;;;;;;;;4980422;28;20642;-56
2022/09/07 11:54:41;;;;;;;7.80;4.87;;;;;;;;;;4977645;28;20217;-56
2022/09/07 11:57:17;;;;;;;5.77;5.17;;;;;;;;;;4970443;28;20238;-56
2022/09/07 11:59:49;;;;;;;13.70;12.80;;;;;;;;;;4985243;28;20196;-56
2022/09/07 12:02:15;;;;;;;7.80;7.30;;;;;;;;;;4987004;28;20210;-56
2022/09/07 12:04:54;;;;;;;5.60;5.00;;;;;;;;;;4971791;28;20183;-56
2022/09/07 12:07:23;;;;;;;6.83;4.77;;;;;;;;;;4989349;28;20463;-56
2022/09/07 12:10:07;;;;;;;4.63;4.23;;;;;;;;;;4992229;28;20644;-56
2022/09/07 12:12:34;;;;;;;4.33;4.03;;;;;;;;;;4953767;28;20275;-57
2022/09/07 12:15:03;;;;;;;5.00;4.50;;;;;;;;;;4967707;28;20702;-56
2022/09/07 12:17:36;;;;;;;6.13;4.40;;;;;;;;;;4969956;28;20194;-57
2022/09/07 12:20:14;;;;;;;5.17;4.67;;;;;;;;;;4992475;28;20187;-56
2022/09/07 12:22:56;;;;;;;5.67;4.30;;;;;;;;;;4973095;28;20185;-56
2022/09/07 12:25:23;;;;;;;4.83;3.40;;;;;;;;;;4988995;28;20244;-56
2022/09/07 12:27:49;;;;;;;6.30;5.70;;;;;;;;;;4989982;28;20185;-56
2022/09/07 12:30:17;;;;;;;7.03;5.80;;;;;;;;;;4991644;28;20321;-56
2022/09/07 12:32:46;;;;;;;5.20;4.80;;;;;;;;;;4978196;28;20207;-56
2022/09/07 12:35:30;;;;;;;6.57;5.90;;;;;;;;;;4990218;28;20294;-55
2022/09/07 12:38:00;;;;;;;5.97;5.47;;;;;;;;;;4990389;28;20171;-55
2022/09/07 12:40:29;;;;;;;5.13;4.63;;;;;;;;;;4975643;28;20186;-55
2022/09/07 12:43:14;;;;;;;5.80;5.30;;;;;;;;;;5001284;28;20178;-55
2022/09/07 12:45:40;;;;;;;6.30;4.77;;;;;;;;;;4986144;28;20185;-55
2022/09/07 12:48:33;;;;;;;7.13;4.80;;;;;;;;;;4943196;28;20188;-56
2022/09/07 12:51:25;;;;;;;5.63;5.03;;;;;;;;;;4955501;28;20509;-56
2022/09/07 12:53:51;;;;;;;5.13;4.47;;;;;;;;;;4978524;28;20183;-55
2022/09/07 12:56:34;;;;;;;6.87;4.37;;;;;;;;;;4957412;28;20247;-56
2022/09/07 12:59:03;;;;;;;4.10;3.70;;;;;;;;;;4974652;28;20173;-56
2022/09/07 13:01:48;;;;;;;4.30;3.87;;;;;;;;;;4978887;28;20183;-56
2022/09/07 13:04:23;;;;;;;4.67;3.83;;;;;;;;;;4970760;28;20223;-56
2022/09/07 13:07:08;;;;;;;5.43;3.90;;;;;;;;;;4951530;28;20218;-56
2022/09/07 13:09:35;;;;;;;3.87;3.60;;;;;;;;;;4957580;28;20718;-57
2022/09/07 13:12:03;;;;;;;4.40;3.97;;;;;;;;;;4978467;28;20177;-56
2022/09/07 13:14:32;;;;;;;4.67;3.53;;;;;;;;;;4946307;28;20196;-56
2022/09/07 13:17:17;;;;;;;4.33;3.27;;;;;;;;;;4959792;28;20171;-56
2022/09/07 13:19:47;;;;;;;4.07;3.43;;;;;;;;;;4955648;28;20237;-57
2022/09/07 13:22:32;;;;;;;4.23;3.83;;;;;;;;;;4973708;28;20246;-57
2022/09/07 13:25:00;;;;;;;3.73;3.03;;;;;;;;;;4982376;28;20191;-56
2022/09/07 13:27:33;;;;;;;6.03;3.43;;;;;;;;;;4965910;28;20183;-57
2022/09/07 13:30:02;;;;;;;11.10;4.57;;;;;;;;;;4968285;28;20179;-57
2022/09/07 13:32:30;;;;;;;5.57;3.83;;;;;;;;;;4978354;28;20227;-57
2022/09/07 13:35:05;;;;;;;3.93;3.53;;;;;;;;;;4953520;28;20223;-57
2022/09/07 13:37:35;;;;;;;5.30;4.07;;;;;;;;;;4943101;28;20184;-57
2022/09/07 13:40:02;;;;;;;4.13;3.33;;;;;;;;;;4967550;28;20173;-57
2022/09/07 13:42:29;;;;;;;3.87;3.57;;;;;;;;;;4966517;28;20645;-57
2022/09/07 13:44:57;;;;;;;11.63;4.07;;;;;;;;;;4950483;28;20178;-57
2022/09/07 13:47:26;;;;;;;5.93;3.20;;;;;;;;;;4985091;28;20250;-56
2022/09/07 13:49:59;;;;;;;5.90;3.23;;;;;;;;;;4969716;28;20556;-57
2022/09/07 13:52:41;;;;;;;3.27;2.97;;;;;;;;;;4990449;28;20290;-56
2022/09/07 13:55:19;;;;;;;7.00;3.40;;;;;;;;;;4971365;28;20734;-57
2022/09/07 13:58:05;;;;;;;4.70;3.40;;;;;;;;;;4970541;28;20278;-56
2022/09/07 14:00:31;;;;;;;5.20;3.40;;;;;;;;;;4985179;28;20243;-57
2022/09/07 14:03:02;;;;;;;3.97;3.10;;;;;;;;;;4995792;28;20170;-56
2022/09/07 14:05:29;;;;;;;4.63;3.13;;;;;;;;;;4979325;28;20210;-56
2022/09/07 14:07:55;;;;;;;4.20;3.00;;;;;;;;;;4957407;28;20331;-58
2022/09/07 14:10:23;;;;;;;3.37;2.87;;;;;;;;;;4966453;28;20616;-58
2022/09/07 14:12:54;;;;;;;5.73;2.90;;;;;;;;;;4963625;28;20215;-57
2022/09/07 14:15:21;;;;;;;3.07;2.83;;;;;;;;;;4981101;28;20701;-57
2022/09/07 14:17:48;;;;;;;3.70;2.77;;;;;;;;;;4984364;28;20658;-57
2022/09/07 14:20:15;;;;;;;5.73;5.33;;;;;;;;;;4979039;28;20187;-57
2022/09/07 14:22:41;;;;;;;4.87;3.10;;;;;;;;;;4966147;28;20516;-57
2022/09/07 14:25:13;;;;;;;5.67;2.60;;;;;;;;;;4981343;28;20280;-58
2022/09/07 14:27:41;;;;;;;3.33;2.60;;;;;;;;;;4968810;28;20183;-57
2022/09/07 14:30:33;;;;;;;3.63;2.90;;;;;;;;;;4984933;28;20298;-58
2022/09/07 14:33:16;;;;;;;4.20;3.07;;;;;;;;;;4983444;28;20278;-59
2022/09/07 14:35:42;;;;;;;5.97;2.77;;;;;;;;;;4997467;28;20208;-58
2022/09/07 14:38:18;;;;;;;4.50;3.17;;;;;;;;;;4962137;28;20177;-59
2022/09/07 14:40:44;;;;;;;4.33;3.80;;;;;;;;;;4976711;28;20185;-58
2022/09/07 14:43:29;;;;;;;3.03;2.37;;;;;;;;;;4960485;28;20505;-58
2022/09/07 14:46:14;;;;;;;2.77;2.50;;;;;;;;;;4980256;28;20181;-58
2022/09/07 14:48:41;;;;;;;3.00;2.47;;;;;;;;;;4963835;28;20202;-58
2022/09/07 14:51:07;;;;;;;5.23;2.47;;;;;;;;;;4979922;28;20193;-58
2022/09/07 14:53:33;;;;;;;4.77;2.90;;;;;;;;;;4977193;28;20810;-57
2022/09/07 14:56:02;;;;;;;4.30;3.97;;;;;;;;;;4976365;28;20215;-57
2022/09/07 14:58:31;;;;;;;3.13;2.83;;;;;;;;;;4958800;28;20186;-57
2022/09/07 15:01:09;;;;;;;3.03;2.73;;;;;;;;;;4981796;28;20176;-57
2022/09/07 15:03:38;;;;;;;2.90;2.67;;;;;;;;;;4938575;28;20182;-57
2022/09/07 15:06:05;;;;;;;2.73;2.43;;;;;;;;;;4964208;28;20197;-57
2022/09/07 15:08:37;;;;;;;2.83;2.47;;;;;;;;;;4972808;28;20547;-57
2022/09/07 15:11:12;;;;;;;3.10;2.57;;;;;;;;;;4976039;28;20541;-57
2022/09/07 15:13:40;;;;;;;2.97;2.77;;;;;;;;;;4981199;28;20180;-57
2022/09/07 15:16:18;;;;;;;3.40;2.73;;;;;;;;;;4963956;28;20759;-56
2022/09/07 15:18:53;;;;;;;7.63;3.53;;;;;;;;;;4948419;28;20276;-57
2022/09/07 15:21:20;;;;;;;3.93;3.37;;;;;;;;;;4964963;28;20226;-57
2022/09/07 15:23:50;;;;;;;6.83;3.13;;;;;;;;;;4960429;28;20190;-57
2022/09/07 15:26:16;;;;;;;3.30;2.93;;;;;;;;;;4961627;28;20667;-57
2022/09/07 15:28:43;;;;;;;3.60;2.90;;;;;;;;;;4978712;28;20700;-57
2022/09/07 15:31:10;;;;;;;7.27;2.87;;;;;;;;;;4991976;28;20191;-57
2022/09/07 15:33:36;;;;;;;4.20;2.57;;;;;;;;;;4991200;28;20659;-57
2022/09/07 15:36:03;;;;;;;3.10;2.47;;;;;;;;;;4988815;28;20685;-57
2022/09/07 15:38:29;;;;;;;3.37;2.60;;;;;;;;;;4984732;28;20186;-57
2022/09/07 15:40:56;;;;;;;2.70;2.50;;;;;;;;;;4992140;28;20177;-57
2022/09/07 15:43:23;;;;;;;4.33;3.80;;;;;;;;;;4970953;28;20183;-57
2022/09/07 15:45:50;;;;;;;3.80;3.00;;;;;;;;;;4981082;28;20601;-57
2022/09/07 15:48:19;;;;;;;3.03;2.70;;;;;;;;;;4978159;28;20300;-57
2022/09/07 15:50:45;;;;;;;2.70;2.50;;;;;;;;;;4971329;28;20277;-57
2022/09/07 15:53:12;;;;;;;5.30;2.70;;;;;;;;;;4971877;28;20188;-57
2022/09/07 15:55:38;;;;;;;5.00;2.83;;;;;;;;;;4962531;28;20224;-57
2022/09/07 15:58:04;;;;;;;2.80;2.60;;;;;;;;;;4965307;28;20703;-58